createdAt,value
2018-10-19T00:03:43.649Z,22.36
2018-10-19T00:08:46.930Z,22.33
2018-10-19T00:13:50.223Z,22.34
2018-10-19T00:18:53.501Z,22.36
2018-10-19T00:23:56.773Z,22.35
2018-10-19T00:29:00.244Z,22.31
2018-10-19T00:34:03.569Z,22.34
2018-10-19T00:39:09.176Z,22.33
2018-10-19T00:44:12.424Z,22.30
2018-10-19T00:49:15.706Z,22.31
2018-10-19T00:54:18.982Z,22.32
2018-10-19T00:59:22.257Z,22.27
2018-10-19T01:04:25.525Z,22.28
2018-10-19T01:09:28.816Z,22.26
2018-10-19T01:14:32.085Z,22.28
2018-10-19T01:19:35.365Z,22.28
2018-10-19T01:24:38.640Z,22.26
2018-10-19T01:29:41.926Z,22.29
2018-10-19T01:34:45.241Z,22.26
2018-10-19T01:39:48.522Z,22.26
2018-10-19T01:44:51.811Z,22.22
2018-10-19T01:49:55.092Z,22.25
2018-10-19T01:54:58.394Z,22.22
2018-10-19T02:00:01.683Z,22.22
2018-10-19T02:05:05.724Z,22.25
2018-10-19T02:10:08.982Z,22.23
2018-10-19T02:15:12.287Z,22.21
2018-10-19T02:20:15.570Z,22.24
2018-10-19T02:25:18.849Z,22.20
2018-10-19T02:30:22.123Z,22.18
2018-10-19T02:35:25.392Z,22.18
2018-10-19T02:40:28.678Z,22.20
2018-10-19T02:45:34.199Z,22.21
2018-10-19T02:50:37.484Z,22.18
2018-10-19T02:55:40.826Z,22.20
2018-10-19T03:00:44.101Z,22.18
2018-10-19T03:05:47.376Z,22.22
2018-10-19T03:10:50.682Z,22.17
2018-10-19T03:15:53.958Z,22.19
2018-10-19T03:20:57.293Z,22.19
2018-10-19T03:26:00.556Z,22.18
2018-10-19T03:31:04.129Z,22.16
2018-10-19T03:36:07.384Z,22.17
2018-10-19T03:41:10.750Z,22.19
2018-10-19T03:46:13.990Z,22.18
2018-10-19T03:51:17.348Z,22.22
2018-10-19T03:56:20.573Z,22.22
2018-10-19T04:01:23.854Z,22.20
2018-10-19T04:06:27.223Z,22.23
2018-10-19T04:11:30.496Z,22.21
2018-10-19T04:16:33.775Z,22.16
2018-10-19T04:21:37.098Z,22.23
2018-10-19T04:26:40.385Z,22.19
2018-10-19T04:31:43.677Z,22.19
2018-10-19T04:36:46.972Z,22.18
2018-10-19T04:41:50.436Z,22.16
2018-10-19T04:46:53.633Z,22.17
2018-10-19T04:51:57.036Z,22.16
2018-10-19T04:57:00.352Z,22.19
2018-10-19T05:02:03.623Z,22.21
2018-10-19T05:07:06.923Z,22.14
2018-10-19T05:12:10.210Z,22.16
2018-10-19T05:17:13.596Z,22.13
2018-10-19T05:22:16.806Z,22.19
2018-10-19T05:27:20.113Z,22.16
2018-10-19T05:32:23.391Z,22.07
2018-10-19T05:37:26.671Z,22.14
2018-10-19T05:42:30.178Z,22.14
2018-10-19T05:47:33.474Z,22.10
2018-10-19T05:52:37.210Z,22.10
2018-10-19T05:57:40.490Z,22.11
2018-10-19T06:02:43.900Z,22.07
2018-10-19T06:07:47.137Z,22.08
2018-10-19T06:12:50.414Z,22.05
2018-10-19T06:17:53.704Z,22.02
2018-10-19T06:22:57.011Z,22.02
2018-10-19T06:28:00.313Z,22.03
2018-10-19T06:33:03.585Z,22.00
2018-10-19T06:38:07.263Z,21.99
2018-10-19T06:43:10.511Z,21.99
2018-10-19T06:48:13.790Z,22.01
2018-10-19T06:53:17.069Z,21.99
2018-10-19T06:58:20.341Z,22.00
2018-10-19T07:03:23.619Z,21.93
2018-10-19T07:08:26.946Z,21.92
2018-10-19T07:13:30.206Z,21.94
2018-10-19T07:18:33.473Z,21.97
2018-10-19T07:23:36.758Z,21.11
2018-10-19T07:28:40.054Z,20.68
2018-10-19T07:33:43.334Z,20.52
2018-10-19T07:38:46.617Z,20.38
2018-10-19T07:43:49.890Z,20.39
2018-10-19T07:48:53.180Z,20.21
2018-10-19T07:53:56.495Z,20.08
2018-10-19T07:58:59.805Z,20.03
2018-10-19T08:04:03.185Z,20.45
2018-10-19T08:09:08.958Z,20.70
2018-10-19T08:14:12.315Z,20.82
2018-10-19T08:19:15.557Z,20.96
2018-10-19T08:24:18.828Z,21.01
2018-10-19T08:29:22.106Z,21.08
2018-10-19T08:34:25.392Z,21.11
2018-10-19T08:39:28.715Z,21.09
2018-10-19T08:44:32.128Z,21.13
2018-10-19T08:49:35.590Z,21.14
2018-10-19T08:54:38.884Z,21.17
2018-10-19T08:59:42.187Z,21.30
2018-10-19T09:04:45.562Z,21.32
2018-10-19T09:09:48.856Z,21.36
2018-10-19T09:14:57.996Z,21.41
2018-10-19T09:20:01.293Z,21.40
2018-10-19T09:25:04.804Z,21.36
2018-10-19T09:30:08.351Z,21.38
2018-10-19T09:35:12.160Z,21.47
2018-10-19T09:40:15.524Z,21.51
2018-10-19T09:45:18.990Z,21.54
2018-10-19T09:50:22.578Z,21.60
2018-10-19T09:55:26.293Z,21.64
2018-10-19T10:00:34.982Z,21.66
2018-10-19T10:05:38.354Z,21.67
2018-10-19T10:10:41.638Z,21.70
2018-10-19T10:15:44.972Z,21.73
2018-10-19T10:20:48.217Z,21.73
2018-10-19T10:25:51.550Z,21.79
2018-10-19T10:30:54.876Z,21.79
2018-10-19T10:35:58.253Z,21.80
2018-10-19T10:41:01.806Z,21.82
2018-10-19T10:46:05.299Z,21.86
2018-10-19T10:51:08.597Z,21.88
2018-10-19T10:56:11.893Z,21.89
2018-10-19T11:01:15.597Z,21.93
2018-10-19T11:06:18.873Z,22.00
2018-10-19T11:11:22.146Z,22.03
2018-10-19T11:16:25.420Z,21.99
2018-10-19T11:21:28.693Z,21.99
2018-10-19T11:26:32.053Z,22.01
2018-10-19T11:31:35.572Z,22.01
2018-10-19T11:36:38.862Z,22.02
2018-10-19T11:41:42.174Z,22.03
2018-10-19T11:46:45.478Z,22.05
2018-10-19T11:51:49.177Z,22.07
2018-10-19T11:56:52.545Z,22.08
2018-10-19T12:01:55.838Z,22.10
2018-10-19T12:06:59.287Z,22.12
2018-10-19T12:12:03.306Z,22.11
2018-10-19T12:17:06.619Z,22.13
2018-10-19T12:22:09.903Z,22.11
2018-10-19T12:27:13.310Z,22.15
2018-10-19T12:32:16.774Z,22.18
2018-10-19T12:37:20.063Z,22.14
2018-10-19T12:42:23.366Z,22.17
2018-10-19T12:47:37.374Z,22.17
2018-10-19T12:52:40.761Z,22.14
2018-10-19T12:57:44.129Z,22.13
2018-10-19T13:02:47.454Z,22.14
2018-10-19T13:07:50.795Z,22.11
2018-10-19T13:12:54.100Z,22.16
2018-10-19T13:17:57.481Z,22.17
2018-10-19T13:23:00.790Z,22.10
2018-10-19T13:28:04.368Z,22.12
2018-10-19T13:33:07.815Z,22.16
2018-10-19T13:38:11.169Z,22.16
2018-10-19T13:43:14.448Z,22.20
2018-10-19T13:48:18.054Z,22.16
2018-10-19T13:53:21.783Z,22.21
2018-10-19T13:58:25.756Z,22.24
2018-10-19T14:03:29.216Z,22.33
2018-10-19T14:08:32.492Z,22.29
2018-10-19T14:13:35.861Z,22.34
2018-10-19T14:18:39.161Z,22.37
2018-10-19T14:23:42.477Z,22.32
2018-10-19T14:28:45.758Z,22.31
2018-10-19T14:33:49.054Z,22.32
2018-10-19T14:38:52.366Z,22.30
2018-10-19T14:43:55.720Z,22.32
2018-10-19T14:48:59.444Z,22.37
2018-10-19T14:54:02.695Z,22.37
2018-10-19T14:59:06.575Z,22.32
2018-10-19T15:04:09.834Z,22.35
2018-10-19T15:09:13.323Z,22.35
2018-10-19T15:14:16.556Z,22.39
2018-10-19T15:19:19.930Z,22.36
2018-10-19T15:24:23.210Z,22.35
2018-10-19T15:29:26.571Z,22.35
2018-10-19T15:34:30.137Z,22.29
2018-10-19T15:39:33.416Z,22.34
2018-10-19T15:44:36.783Z,22.32
2018-10-19T15:49:40.070Z,22.32
2018-10-19T15:54:43.405Z,22.34
2018-10-19T15:59:46.981Z,22.33
2018-10-19T16:04:50.696Z,22.33
2018-10-19T16:09:54.158Z,22.32
2018-10-19T16:14:57.479Z,22.32
2018-10-19T16:20:01.491Z,22.34
2018-10-19T16:25:06.866Z,22.32
2018-10-19T16:30:11.256Z,22.33
2018-10-19T16:35:14.959Z,22.32
2018-10-19T16:40:18.300Z,22.30
2018-10-19T16:45:21.609Z,22.24
2018-10-19T16:50:24.888Z,22.29
2018-10-19T16:55:28.170Z,22.28
2018-10-19T17:00:31.509Z,22.27
2018-10-19T17:05:34.889Z,22.30
2018-10-19T17:10:38.251Z,22.30
2018-10-19T17:15:41.524Z,22.34
2018-10-19T17:20:44.818Z,22.33
2018-10-19T17:25:48.229Z,22.34
2018-10-19T17:30:52.042Z,22.32
2018-10-19T17:35:55.479Z,22.34
2018-10-19T17:40:58.778Z,22.36
2018-10-19T17:46:02.129Z,22.35
2018-10-19T17:51:05.483Z,22.37
2018-10-19T17:56:08.864Z,22.42
2018-10-19T18:01:12.174Z,22.40
2018-10-19T18:06:15.563Z,22.42
2018-10-19T18:11:18.869Z,22.40
2018-10-19T18:16:23.003Z,22.44
2018-10-19T18:21:26.521Z,22.47
2018-10-19T18:26:29.874Z,22.46
2018-10-19T18:31:33.342Z,22.49
2018-10-19T18:36:36.922Z,22.52
2018-10-19T18:41:40.403Z,22.52
2018-10-19T18:46:43.657Z,22.55
2018-10-19T18:51:47.017Z,22.58
2018-10-19T18:56:50.352Z,22.56
2018-10-19T19:01:53.701Z,22.58
2018-10-19T19:06:57.170Z,22.58
2018-10-19T19:12:00.485Z,22.59
2018-10-19T19:17:03.846Z,22.59
2018-10-19T19:22:07.377Z,22.63
2018-10-19T19:27:10.877Z,22.56
2018-10-19T19:32:14.275Z,22.57
2018-10-19T19:37:17.578Z,22.53
2018-10-19T19:42:26.377Z,22.50
2018-10-19T19:47:40.749Z,22.52
2018-10-19T19:52:44.066Z,22.57
2018-10-19T19:57:47.361Z,22.52
2018-10-19T20:02:51.225Z,22.45
2018-10-19T20:07:54.531Z,22.43
2018-10-19T20:12:57.862Z,22.46
2018-10-19T20:18:02.022Z,22.42
2018-10-19T20:23:06.473Z,22.39
2018-10-19T20:28:09.799Z,22.41
2018-10-19T20:33:13.121Z,22.35
2018-10-19T20:38:16.485Z,22.41
2018-10-19T20:43:20.147Z,22.40
2018-10-19T20:48:23.458Z,22.37
2018-10-19T20:53:26.855Z,22.35
2018-10-19T20:58:30.240Z,22.37
2018-10-19T21:03:33.537Z,22.33
2018-10-19T21:08:37.011Z,22.32
2018-10-19T21:13:40.306Z,22.33
2018-10-19T21:18:43.592Z,22.33
2018-10-19T21:23:46.878Z,22.33
2018-10-19T21:28:50.479Z,22.34
2018-10-19T21:33:53.897Z,22.30
2018-10-19T21:38:57.446Z,22.30
2018-10-19T21:44:00.909Z,22.28
2018-10-19T21:49:04.201Z,22.30
2018-10-19T21:54:07.645Z,22.26
2018-10-19T21:59:11.760Z,22.30
2018-10-19T22:04:15.128Z,22.27
2018-10-19T22:09:18.578Z,22.28
2018-10-19T22:14:21.864Z,22.27
2018-10-19T22:19:25.146Z,22.28
2018-10-19T22:24:28.529Z,22.30
2018-10-19T22:29:31.825Z,22.29
2018-10-19T22:34:35.185Z,22.29
2018-10-19T22:39:38.510Z,22.26
2018-10-19T22:44:41.988Z,22.37
2018-10-19T22:49:45.307Z,22.38
2018-10-19T22:54:48.644Z,22.25
2018-10-19T22:59:52.017Z,22.24
2018-10-19T23:04:55.362Z,22.23
2018-10-19T23:09:58.671Z,22.23
2018-10-19T23:15:02.468Z,22.23
2018-10-19T23:20:07.851Z,22.23
2018-10-19T23:25:11.213Z,22.17
2018-10-19T23:30:14.584Z,22.19
2018-10-19T23:35:18.831Z,22.15
2018-10-19T23:40:22.121Z,22.20
2018-10-19T23:45:25.411Z,22.17
2018-10-19T23:50:28.966Z,22.19
2018-10-19T23:55:32.348Z,22.17
